Terminal Aerodrome Forecast
Issued by NWS

Home | Current Version | Previous Version | Text Only | Print | Product List | Glossary On
Versions: 1 2 3 4 5 6 7 8 9 10 11 12 13 14
000
FTPA31 PHFO 171123
TAFHOG
TAF
PHOG 171123Z 1712/1812 18007KT P6SM VCSH SCT025 BKN050
     FM172000 21013G20KT P6SM FEW030 SCT050
     FM180500 19007KT P6SM SCT030 SCT050
      AMD LTD TO VIS AND WIND TIL 171600=

USA.gov is the U.S. government's official web portal to all federal, state and local government web resources and services.